Time;durP1;ratioP1;P1;durP2;ratioP2;P2;SDS_P1;SDS_P2;PMS_P1;PMS_P2;Temp;Humidity;BMP_temperature;BMP_pressure;BME280_temperature;BME280_humidity;BME280_pressure;Samples;Min_cycle;Max_cycle;Signal;HPM_P1;HPM_P2
2022/03/22 00:02:45;;;;;;;10.67;5.00;;;;;;;0.65;49.78;102653.19;18430765;32;20116;-63
2022/03/22 00:12:49;;;;;;;9.02;4.00;;;;;;;0.85;49.45;102651.19;18430674;32;20085;-62
2022/03/22 00:22:54;;;;;;;11.23;4.27;;;;;;;0.64;50.43;102647.13;18429793;32;20441;-62
2022/03/22 00:32:59;;;;;;;8.47;5.70;;;;;;;0.83;49.43;102641.69;18429739;32;20118;-62
2022/03/22 00:43:04;;;;;;;12.00;6.83;;;;;;;0.58;49.79;102641.56;18429128;32;20097;-62
2022/03/22 00:53:08;;;;;;;10.40;5.87;;;;;;;0.50;50.03;102646.09;18429580;32;20495;-62
2022/03/22 01:03:13;;;;;;;9.37;5.10;;;;;;;0.17;50.32;102636.72;18428051;32;20097;-63
2022/03/22 01:13:16;;;;;;;7.00;4.00;;;;;;;0.29;50.24;102636.78;18427608;32;20428;-63
2022/03/22 01:23:21;;;;;;;6.83;4.50;;;;;;;0.47;50.20;102626.97;18427249;32;20105;-63
2022/03/22 01:33:24;;;;;;;10.07;5.30;;;;;;;0.22;51.95;102620.00;18427213;32;20133;-62
2022/03/22 01:43:29;;;;;;;6.10;3.80;;;;;;;0.01;52.78;102622.72;18425608;32;20733;-63
2022/03/22 01:53:37;;;;;;;7.00;2.93;;;;;;;-0.11;53.67;102629.47;18425489;32;20101;-63
2022/03/22 02:14:06;;;;;;;8.73;3.40;;;;;;;-0.09;52.96;102623.69;18430702;32;20105;-62
2022/03/22 02:24:14;;;;;;;6.30;4.50;;;;;;;-0.31;54.99;102606.63;18433903;32;20101;-63
2022/03/22 02:34:18;;;;;;;4.80;3.40;;;;;;;-0.17;53.61;102617.97;18434544;32;20092;-63
2022/03/22 02:44:23;;;;;;;2.93;2.70;;;;;;;-0.58;55.31;102613.94;18433531;32;20101;-62
2022/03/22 02:54:26;;;;;;;4.87;3.07;;;;;;;-0.39;54.85;102609.34;18432798;32;20463;-63
2022/03/22 03:04:30;;;;;;;3.07;2.80;;;;;;;-0.19;54.04;102609.25;18434176;32;20187;-62
2022/03/22 03:14:40;;;;;;;4.03;2.60;;;;;;;-0.57;55.02;102619.94;18432501;32;20117;-62
2022/03/22 03:24:45;;;;;;;4.87;3.60;;;;;;;-0.67;55.32;102628.59;18431276;32;20096;-63
2022/03/22 03:34:48;;;;;;;7.33;3.07;;;;;;;-0.76;56.45;102628.78;18416274;32;20129;-63
2022/03/22 03:55:14;;;;;;;3.47;3.17;;;;;;;-0.76;56.22;102635.56;18412934;32;20092;-62
2022/03/22 04:05:18;;;;;;;2.13;1.93;;;;;;;-0.88;57.74;102635.44;18394304;32;20788;-63
2022/03/22 04:15:23;;;;;;;9.93;3.23;;;;;;;-1.04;57.00;102639.38;18394524;32;20085;-62
2022/03/22 04:25:28;;;;;;;4.63;3.83;;;;;;;-1.08;57.10;102644.13;18406311;32;20101;-62
2022/03/22 04:35:31;;;;;;;3.07;2.67;;;;;;;-1.18;57.73;102650.13;18395179;32;20125;-62
2022/03/22 04:45:36;;;;;;;5.43;2.57;;;;;;;-1.00;57.71;102655.88;18391623;32;20107;-62
2022/03/22 05:16:23;;;;;;;2.07;1.97;;;;;;;-0.79;57.41;102666.97;18358316;32;20211;-62
2022/03/22 05:26:28;;;;;;;3.87;2.27;;;;;;;-0.56;56.45;102676.53;18416451;32;20112;-62
2022/03/22 05:36:31;;;;;;;6.13;3.67;;;;;;;-0.07;57.20;102667.47;18405849;32;20101;-63
2022/03/22 05:46:36;;;;;;;4.28;2.95;;;;;;;0.92;55.30;102662.03;18432089;32;20701;-65
2022/03/22 05:56:39;;;;;;;10.98;4.78;;;;;;;2.67;50.97;102661.25;18437080;32;20150;-65
2022/03/22 06:06:44;;;;;;;12.37;5.43;;;;;;;5.50;44.31;102658.47;18435119;32;20100;-66
2022/03/22 06:16:47;;;;;;;10.05;5.07;;;;;;;7.71;38.71;102666.03;18434824;32;20105;-66
2022/03/22 06:26:52;;;;;;;11.25;4.90;;;;;;;9.43;34.65;102662.00;18435383;32;20104;-66
2022/03/22 06:36:56;;;;;;;13.55;6.95;;;;;;;12.44;28.08;102662.19;18434819;32;20107;-67
2022/03/22 06:47:00;;;;;;;11.80;6.45;;;;;;;15.45;24.48;102653.25;18434682;32;20108;-67
2022/03/22 06:57:05;;;;;;;17.70;7.35;;;;;;;17.87;20.38;102644.78;18433473;32;20149;-67
2022/03/22 07:07:09;;;;;;;13.23;6.05;;;;;;;17.85;20.33;102640.34;18432102;32;20089;-67
2022/03/22 07:17:12;;;;;;;12.55;5.90;;;;;;;16.49;22.29;102650.06;18432313;32;20119;-66
2022/03/22 07:27:17;;;;;;;11.10;4.80;;;;;;;15.46;22.92;102657.66;18433455;32;20175;-66
2022/03/22 07:37:20;;;;;;;11.80;5.60;;;;;;;14.42;24.73;102649.91;18433782;32;20109;-66
2022/03/22 07:47:25;;;;;;;11.55;4.78;;;;;;;15.40;23.61;102659.34;18432722;32;20073;-67
2022/03/22 07:57:29;;;;;;;11.38;4.32;;;;;;;15.90;22.88;102661.75;18432183;32;20114;-67
2022/03/22 08:07:33;;;;;;;11.00;4.28;;;;;;;16.96;21.12;102650.44;18430631;32;20084;-67
2022/03/22 08:17:39;;;;;;;9.27;4.75;;;;;;;17.00;21.76;102647.00;18428459;32;20122;-67
2022/03/22 08:27:44;;;;;;;12.73;4.85;;;;;;;16.95;21.68;102640.75;18431345;32;20077;-67
2022/03/22 08:37:47;;;;;;;7.55;3.78;;;;;;;16.85;21.42;102633.66;18430030;32;20166;-67
2022/03/22 08:47:54;;;;;;;8.82;3.72;;;;;;;16.48;19.81;102619.31;18430912;32;20116;-67
2022/03/22 08:58:05;;;;;;;7.40;3.72;;;;;;;17.18;18.24;102622.47;18431571;32;20626;-67
2022/03/22 09:08:10;;;;;;;9.27;4.07;;;;;;;17.41;16.62;102610.25;18414402;32;20458;-68
2022/03/22 09:18:16;;;;;;;10.13;4.07;;;;;;;18.66;16.52;102604.34;18388930;32;20450;-68
2022/03/22 09:28:21;;;;;;;7.53;3.80;;;;;;;17.95;15.82;102588.44;18285140;32;20117;-66
2022/03/22 09:38:25;;;;;;;6.25;3.47;;;;;;;19.23;14.59;102573.38;18309046;32;20129;-68
2022/03/22 09:48:31;;;;;;;6.87;3.22;;;;;;;21.39;11.85;102562.75;18309022;32;20108;-67
2022/03/22 09:58:37;;;;;;;8.02;3.33;;;;;;;23.88;10.40;102552.94;18308667;32;20112;-66
2022/03/22 10:08:52;;;;;;;10.73;3.85;;;;;;;26.21;9.05;102540.94;18307537;32;20535;-66
2022/03/22 10:18:59;;;;;;;7.82;3.47;;;;;;;22.14;11.39;102544.81;18304796;32;20155;-67
2022/03/22 10:29:07;;;;;;;7.93;2.83;;;;;;;21.68;12.17;102521.66;18332063;32;20115;-65
2022/03/22 10:39:13;;;;;;;5.87;2.70;;;;;;;23.49;10.23;102513.84;18362113;32;20116;-68
2022/03/22 10:49:19;;;;;;;6.75;2.70;;;;;;;25.10;9.87;102503.44;18367292;32;20108;-69
2022/03/22 10:59:42;;;;;;;6.32;2.35;;;;;;;27.63;7.94;102491.00;18369656;32;20098;-69
2022/03/22 11:09:46;;;;;;;7.45;3.35;;;;;;;26.58;8.70;102477.19;18369430;32;20093;-68
2022/03/22 11:19:50;;;;;;;6.18;2.80;;;;;;;24.23;10.87;102463.13;18370056;32;20108;-68
2022/03/22 11:29:54;;;;;;;5.18;2.58;;;;;;;22.06;12.46;102455.47;18338000;32;20093;-68
2022/03/22 12:02:26;;;;;;;5.65;2.37;;;;;;;20.33;14.00;102418.00;18321931;32;20090;-66
2022/03/22 12:13:00;;;;;;;7.25;2.92;;;;;;;20.85;14.27;102403.25;18333702;32;20103;-66
2022/03/22 12:23:20;;;;;;;5.87;3.00;;;;;;;21.03;12.43;102387.97;18365422;32;20113;-67
2022/03/22 12:33:23;;;;;;;6.15;2.70;;;;;;;20.91;13.04;102374.00;18315061;32;20112;-67
2022/03/22 12:43:28;;;;;;;6.40;2.62;;;;;;;20.88;12.94;102354.56;18309360;32;20104;-68
2022/03/22 12:53:33;;;;;;;7.10;2.78;;;;;;;20.46;14.57;102337.41;18301841;32;20108;-68
2022/03/22 13:03:38;;;;;;;2.65;1.50;;;;;;;20.56;13.39;102319.59;18342516;32;20097;-67
2022/03/22 13:24:07;;;;;;;4.12;2.15;;;;;;;20.15;14.08;102294.50;18321713;32;20093;-67
2022/03/22 13:34:20;;;;;;;4.00;2.17;;;;;;;20.55;13.30;102282.50;18363877;32;20369;-68
2022/03/22 13:44:29;;;;;;;3.75;1.85;;;;;;;20.87;13.71;102284.69;18362055;32;20116;-68
2022/03/22 13:54:32;;;;;;;4.72;2.10;;;;;;;21.73;12.86;102265.53;18363422;32;20366;-68
2022/03/22 14:04:37;;;;;;;6.47;2.50;;;;;;;21.92;13.02;102249.22;18364288;32;20101;-68
2022/03/22 14:14:40;;;;;;;5.57;1.90;;;;;;;21.99;12.33;102245.50;18370751;32;20101;-67
2022/03/22 14:24:46;;;;;;;4.70;1.98;;;;;;;22.34;12.24;102228.81;18369566;32;20093;-68
2022/03/22 14:45:12;;;;;;;9.93;3.60;;;;;;;21.52;12.91;102202.13;18369843;32;20101;-68
2022/03/22 14:55:16;;;;;;;4.70;2.08;;;;;;;21.67;13.08;102187.66;18344391;32;20098;-68
2022/03/22 15:15:42;;;;;;;;;;;;;;;21.59;12.79;102162.13;18302481;32;20129;-68
2022/03/22 15:25:48;;;;;;;5.05;2.08;;;;;;;21.67;12.88;102151.38;18304747;32;19973;-67
2022/03/22 15:35:51;;;;;;;3.70;1.52;;;;;;;21.21;13.63;102143.38;18304502;32;20167;-68
2022/03/22 15:45:56;;;;;;;4.68;2.12;;;;;;;20.87;13.76;102129.88;18303687;32;20089;-68
2022/03/22 15:56:00;;;;;;;2.53;1.45;;;;;;;20.38;14.11;102138.59;18303403;32;20086;-68
2022/03/22 16:06:05;;;;;;;5.12;1.83;;;;;;;20.59;14.66;102141.81;18306412;32;20093;-67
2022/03/22 16:16:09;;;;;;;7.80;2.78;;;;;;;20.31;15.05;102136.94;18304712;32;20112;-67
2022/03/22 16:26:14;;;;;;;4.72;1.90;;;;;;;20.09;15.10;102131.09;18335856;32;20089;-68
2022/03/22 16:46:39;;;;;;;5.28;2.33;;;;;;;19.10;16.23;102114.63;18367597;32;20097;-67
2022/03/22 16:56:43;;;;;;;10.82;5.12;;;;;;;18.52;16.54;102108.97;18367351;32;20105;-67
2022/03/22 17:06:47;;;;;;;7.28;4.10;;;;;;;17.89;17.26;102114.63;18365029;32;20116;-69
2022/03/22 17:16:52;;;;;;;8.13;3.40;;;;;;;17.25;18.22;102108.72;18362002;32;20550;-67
2022/03/22 17:26:59;;;;;;;4.05;2.28;;;;;;;16.24;20.41;102119.31;18364897;32;20990;-67
2022/03/22 17:37:03;;;;;;;5.55;2.30;;;;;;;15.29;21.02;102112.78;18359073;32;20098;-67
2022/03/22 17:47:08;;;;;;;5.03;2.03;;;;;;;13.97;23.70;102128.31;18308755;32;20093;-65
2022/03/22 17:57:11;;;;;;;2.80;1.87;;;;;;;13.18;25.41;102133.38;18331680;32;20101;-64
2022/03/22 18:07:16;;;;;;;6.07;2.90;;;;;;;12.28;26.24;102148.50;18371640;32;20097;-64
2022/03/22 18:17:20;;;;;;;10.63;3.00;;;;;;;11.56;25.14;102148.78;18359983;32;20105;-64
2022/03/22 18:27:25;;;;;;;10.45;4.35;;;;;;;11.31;25.47;102147.34;18366306;32;20136;-64
2022/03/22 18:37:28;;;;;;;5.93;3.20;;;;;;;11.05;27.21;102155.44;18371112;32;20115;-64
2022/03/22 18:47:33;;;;;;;11.18;3.47;;;;;;;10.35;29.44;102159.78;18354852;32;20138;-65
2022/03/22 18:57:36;;;;;;;6.15;2.65;;;;;;;10.10;28.96;102159.09;18310346;32;20102;-64
2022/03/22 19:07:41;;;;;;;8.02;2.00;;;;;;;9.53;31.61;102171.34;18312174;32;598970;-64
2022/03/22 19:17:52;;;;;;;5.82;2.78;;;;;;;9.23;30.70;102166.97;18306465;32;20120;-64
2022/03/22 19:27:57;;;;;;;4.80;2.33;;;;;;;8.71;31.79;102169.59;18310310;32;20100;-64
2022/03/22 19:38:02;;;;;;;2.08;1.65;;;;;;;8.24;33.83;102181.81;18349705;32;20142;-64
2022/03/22 19:48:08;;;;;;;5.97;2.92;;;;;;;7.86;33.23;102174.38;18308415;32;20116;-64
2022/03/22 19:58:11;;;;;;;9.50;2.87;;;;;;;7.42;35.29;102188.31;18305444;32;20102;-63
2022/03/22 20:08:16;;;;;;;3.42;2.22;;;;;;;7.04;36.15;102196.34;18332391;32;20089;-64
2022/03/22 20:18:20;;;;;;;4.15;2.30;;;;;;;6.84;35.62;102202.41;18313531;32;20093;-63
2022/03/22 20:28:24;;;;;;;2.72;2.53;;;;;;;6.74;36.09;102202.03;18304713;32;20124;-63
2022/03/22 20:38:28;;;;;;;4.90;2.67;;;;;;;6.28;37.04;102194.81;18304640;32;20120;-64
2022/03/22 20:48:34;;;;;;;4.10;2.35;;;;;;;6.20;37.61;102186.69;18303970;32;20104;-63
2022/03/22 21:09:00;;;;;;;7.25;2.47;;;;;;;5.65;39.57;102184.19;18302893;32;20078;-63
2022/03/22 21:19:04;;;;;;;8.57;4.35;;;;;;;5.49;40.06;102180.00;18301500;32;20078;-63
2022/03/22 21:29:09;;;;;;;10.63;5.97;;;;;;;5.25;41.61;102175.41;18301377;32;20097;-63
2022/03/22 21:39:12;;;;;;;5.70;4.50;;;;;;;4.98;42.54;102173.28;18300628;32;20097;-63
2022/03/22 21:49:17;;;;;;;15.80;6.82;;;;;;;4.84;42.82;102177.78;18300275;32;20139;-63
2022/03/22 21:59:26;;;;;;;10.90;6.50;;;;;;;4.49;44.13;102179.44;18300013;32;20090;-63
2022/03/22 22:09:31;;;;;;;15.73;7.68;;;;;;;4.56;44.43;102165.13;18299061;32;20169;-63
2022/03/22 22:19:34;;;;;;;12.93;7.80;;;;;;;4.47;45.45;102162.97;18298557;32;20506;-63
2022/03/22 22:29:39;;;;;;;12.00;6.18;;;;;;;4.05;45.91;102171.16;18304276;32;20145;-63
2022/03/22 22:39:42;;;;;;;7.97;5.25;;;;;;;3.94;46.00;102162.81;18307724;32;20442;-63
2022/03/22 22:49:46;;;;;;;7.57;5.37;;;;;;;3.88;46.31;102159.88;18307509;32;20103;-63
2022/03/22 22:59:50;;;;;;;8.85;4.72;;;;;;;3.89;46.43;102153.94;18307338;32;20395;-63
2022/03/22 23:10:10;;;;;;;8.90;3.80;;;;;;;3.56;47.17;102169.37;18306089;32;20379;-64
2022/03/22 23:20:14;;;;;;;5.07;3.75;;;;;;;3.41;48.18;102162.53;18306444;32;20159;-63
2022/03/22 23:30:19;;;;;;;3.45;2.53;;;;;;;3.14;48.90;102144.72;18306214;32;20367;-63
2022/03/22 23:40:22;;;;;;;7.87;2.87;;;;;;;3.28;48.28;102179.06;18305526;32;20093;-63
2022/03/22 23:50:27;;;;;;;3.75;2.50;;;;;;;2.88;49.70;102167.34;18305575;32;20171;-63
